KMSS/MSS METAR and TAF weather

Enter ICAO airport designator
Station Type Date Time Source
KMSS METAR 2021/09/24 01:53 UTC NOAA

KMSS 240153Z AUTO 07004KT 10SM -RA FEW085 BKN110 20/19 A2983 RMK AO2 SLP101 P0005 T02000194 $


Station Type Date Time Source
KMSS Decoded METAR 2021/09/24 01:53 UTC NOAA

MASSENA INTERNATIONAL -RICHARDS FLD, NY, United States (KMSS) 44-56N 074-51W 66M
Sep 23, 2021 - 09:53 PM EDT / 2021.09.24 0153 UTC
Wind: from the ENE (070 degrees) at 5 MPH (4 KT):0
Visibility: 10 mile(s):0
Sky conditions: mostly cloudy
Weather: light rain
Precipitation last hour: 0.05 inches
Temperature: 68.0 F (20.0 C)
Dew Point: 66.9 F (19.4 C)
Relative Humidity: 96%
Pressure (altimeter): 29.83 in. Hg (1010 hPa)
ob: KMSS 240153Z AUTO 07004KT 10SM -RA FEW085 BKN110 20/19 A2983 RMK AO2 SLP101 P0005 T02000194
cycle: 2

Station Type Date Time Source
KMSS TAF 2021/09/23 18:22 UTC NOAA

TAF KMSS 231720Z 2318/2418 13012KT P6SM -SHRA OVC050
FM240000 11006KT P6SM -SHRA OVC040 WS020/15035KT
FM240100 12006KT 5SM -SHRA OVC030
FM240400 18007KT 4SM -SHRA BR OVC011
FM240800 22006KT P6SM VCSH BKN025
FM241200 21009G16KT P6SM SCT040

Example: see airport list